createdAt,value
2022-12-26T00:02:22.977Z,101207.97
2022-12-26T00:05:07.663Z,101206.72
2022-12-26T00:07:51.529Z,101217.09
2022-12-26T00:10:35.340Z,101218.91
2022-12-26T00:13:39.122Z,101223.97
2022-12-26T00:16:23.551Z,101214.41
2022-12-26T00:19:08.864Z,101079.50
2022-12-26T00:21:53.117Z,101229.09
2022-12-26T00:24:36.970Z,101114.91
2022-12-26T00:27:20.896Z,101237.97
2022-12-26T00:30:05.353Z,101211.19
2022-12-26T00:32:49.299Z,101231.16
2022-12-26T00:35:34.445Z,101243.31
2022-12-26T00:38:18.257Z,101222.66
2022-12-26T00:41:02.383Z,101245.97
2022-12-26T00:43:46.392Z,101249.59
2022-12-26T00:46:30.358Z,101218.19
2022-12-26T00:49:14.312Z,101256.72
2022-12-26T00:51:59.500Z,101242.34
2022-12-26T00:54:43.567Z,101250.75
2022-12-26T00:57:27.384Z,101248.88
2022-12-26T01:00:12.249Z,101248.72
2022-12-26T01:02:56.193Z,101243.56
2022-12-26T01:05:43.096Z,101230.38
2022-12-26T01:08:28.334Z,101235.88
2022-12-26T01:11:14.681Z,101240.97
2022-12-26T01:13:58.595Z,101233.09
2022-12-26T07:13:52.847Z,101404.44
2022-12-26T07:16:39.340Z,101404.06
2022-12-26T07:19:23.476Z,101362.31
2022-12-26T07:22:07.544Z,101419.31
2022-12-26T07:24:51.517Z,101376.31
2022-12-26T07:27:35.557Z,101382.38
2022-12-26T07:30:19.781Z,101394.41
2022-12-26T07:33:05.088Z,101381.31
2022-12-26T07:35:49.133Z,101406.91
2022-12-26T07:38:34.421Z,101400.69
2022-12-26T07:41:35.933Z,101383.91
2022-12-26T07:44:19.815Z,101393.19
2022-12-26T07:47:03.792Z,101391.78
2022-12-26T07:49:49.070Z,101406.28
2022-12-26T07:52:32.863Z,101412.22
2022-12-26T07:55:17.003Z,101405.94
2022-12-26T07:58:00.710Z,101410.19
2022-12-26T08:00:44.607Z,101400.97
2022-12-26T08:03:28.472Z,101400.97
2022-12-26T08:06:13.779Z,101411.38
2022-12-26T08:08:57.568Z,101364.97
2022-12-26T08:11:41.457Z,101404.66
2022-12-26T08:14:25.763Z,101386.19
2022-12-26T08:17:09.935Z,101361.59
2022-12-26T08:19:53.867Z,101401.50
2022-12-26T08:22:39.057Z,101396.69
2022-12-26T08:25:22.828Z,101406.28
2022-12-26T08:28:06.779Z,101394.19
2022-12-26T08:30:50.964Z,101385.09
2022-12-26T08:33:36.001Z,101384.25
2022-12-26T08:36:19.825Z,101379.59
2022-12-26T08:39:05.289Z,101381.34
2022-12-26T08:41:49.136Z,101355.16
2022-12-26T08:44:34.171Z,101363.75
2022-12-26T08:47:18.002Z,101331.47
2022-12-26T08:50:01.850Z,101361.91
2022-12-26T08:52:46.788Z,101366.19
2022-12-26T08:55:31.934Z,101374.59
2022-12-26T08:58:16.003Z,101366.22
2022-12-26T09:01:08.313Z,101367.88
2022-12-26T09:03:53.856Z,101350.97
2022-12-26T09:06:39.296Z,101357.09
2022-12-26T09:09:23.355Z,101331.44
2022-12-26T09:12:08.843Z,101340.88
2022-12-26T09:14:52.773Z,101339.69
2022-12-26T09:17:36.850Z,101305.28
2022-12-26T09:20:20.708Z,101307.97
2022-12-26T09:23:04.636Z,101335.97
2022-12-26T09:25:48.359Z,101314.03
2022-12-26T09:28:34.151Z,101302.75
2022-12-26T09:31:21.611Z,101291.97
2022-12-26T09:34:07.688Z,101321.94
2022-12-26T09:36:51.808Z,101281.16
2022-12-26T09:39:36.259Z,101261.81
2022-12-26T09:42:29.675Z,101308.19
2022-12-26T09:45:17.162Z,101293.22
2022-12-26T09:48:07.769Z,101306.56
2022-12-26T09:50:53.327Z,101312.00
2022-12-26T09:53:41.976Z,101314.75
2022-12-26T09:59:35.641Z,101313.25
2022-12-26T10:02:23.648Z,101313.09
2022-12-26T10:05:08.555Z,101311.22
2022-12-26T10:07:59.452Z,101306.72
2022-12-26T10:10:49.745Z,101289.94
2022-12-26T10:13:41.125Z,101303.13
2022-12-26T10:16:34.395Z,101309.94
2022-12-26T10:19:33.065Z,101261.91
2022-12-26T10:22:37.896Z,101296.28
2022-12-26T10:25:26.353Z,101283.81
2022-12-26T10:28:19.626Z,101276.69
2022-12-26T10:31:07.559Z,101272.75
2022-12-26T10:33:57.609Z,101268.19
2022-12-26T10:36:47.183Z,101263.16
2022-12-26T10:39:35.724Z,101263.25
2022-12-26T10:42:25.704Z,101229.03
2022-12-26T10:45:17.351Z,101273.34
2022-12-26T10:48:01.171Z,101256.84
2022-12-26T10:50:49.687Z,101266.97
2022-12-26T10:53:35.582Z,101262.44
2022-12-26T10:56:19.908Z,101221.66
2022-12-26T10:59:05.913Z,101263.75
2022-12-26T11:01:50.282Z,101258.25
2022-12-26T11:07:41.644Z,101251.56
2022-12-26T11:10:30.301Z,101240.38
2022-12-26T11:13:20.511Z,101234.16
2022-12-26T11:16:04.691Z,101229.50
2022-12-26T11:18:50.751Z,101222.47
2022-12-26T11:21:35.354Z,101222.91
2022-12-26T11:24:20.867Z,101217.19
2022-12-26T11:27:20.272Z,101199.69
2022-12-26T11:30:28.857Z,101206.69
2022-12-26T11:33:26.895Z,101201.81
2022-12-26T11:36:18.349Z,101112.78
2022-12-26T11:39:05.560Z,101150.94
2022-12-26T11:41:49.690Z,101159.22
2022-12-26T11:44:41.230Z,101186.72
2022-12-26T11:47:28.335Z,101171.03
2022-12-26T11:50:21.333Z,101150.59
2022-12-26T11:53:08.123Z,101194.50
2022-12-26T11:56:00.894Z,101188.38
2022-12-26T11:58:44.851Z,101189.41
2022-12-26T12:01:30.057Z,101185.53
2022-12-26T12:04:14.135Z,101183.94
2022-12-26T12:07:07.719Z,101181.22
2022-12-26T12:10:03.031Z,101178.41
2022-12-26T12:12:51.140Z,101188.06
2022-12-26T12:15:44.456Z,101184.69
2022-12-26T12:18:42.879Z,101194.16
2022-12-26T12:21:38.204Z,101185.78
2022-12-26T12:24:43.967Z,101172.59
2022-12-26T12:27:31.646Z,101174.69
2022-12-26T12:30:20.457Z,101167.63
2022-12-26T12:33:27.228Z,101192.22
2022-12-26T12:36:15.186Z,101175.94
2022-12-26T12:39:08.097Z,101181.16
2022-12-26T12:42:12.078Z,101178.19
2022-12-26T12:45:10.663Z,101152.25
2022-12-26T12:48:21.418Z,101196.75
2022-12-26T12:51:17.609Z,101185.88
2022-12-26T12:54:39.680Z,101196.78
2022-12-26T12:57:28.549Z,101192.91
2022-12-26T13:00:17.344Z,101189.38
2022-12-26T13:03:10.521Z,101191.31
2022-12-26T13:06:01.085Z,101184.13
2022-12-26T13:08:50.372Z,101158.78
2022-12-26T13:11:39.816Z,101190.50
2022-12-26T13:14:28.251Z,101182.94
2022-12-26T13:17:18.917Z,101168.44
2022-12-26T13:20:06.774Z,101194.88
2022-12-26T13:23:12.715Z,101192.69
2022-12-26T13:26:07.534Z,101191.78
2022-12-26T13:28:58.019Z,101186.72
2022-12-26T13:31:43.036Z,101171.88
2022-12-26T13:34:27.187Z,101161.69
2022-12-26T13:37:49.635Z,101192.53
2022-12-26T13:40:33.754Z,101191.25
2022-12-26T13:43:41.536Z,101179.13
2022-12-26T13:46:38.305Z,101188.41
2022-12-26T13:49:36.027Z,101185.69
2022-12-26T13:52:35.070Z,101185.31
2022-12-26T13:55:43.286Z,101191.09
2022-12-26T13:58:41.197Z,101184.81
2022-12-26T14:01:40.305Z,101143.50
2022-12-26T14:04:39.446Z,101185.59
2022-12-26T14:07:31.402Z,101188.16
2022-12-26T14:10:23.135Z,101189.28
2022-12-26T14:13:30.953Z,101154.63
2022-12-26T14:16:22.989Z,101173.25
2022-12-26T14:19:18.206Z,101174.66
2022-12-26T14:22:10.669Z,101186.47
2022-12-26T14:25:06.032Z,101179.19
2022-12-26T14:27:55.423Z,101177.19
2022-12-26T14:30:56.214Z,101166.06
2022-12-26T14:33:51.744Z,101152.22
2022-12-26T14:36:42.124Z,101151.72
2022-12-26T14:39:36.799Z,101163.16
2022-12-26T14:42:40.827Z,101167.72
2022-12-26T14:45:46.379Z,101157.44
2022-12-26T14:48:48.894Z,101159.53
2022-12-26T14:51:42.042Z,101161.53
2022-12-26T14:54:50.863Z,101157.47
2022-12-26T14:57:44.492Z,101113.53
2022-12-26T15:00:34.497Z,101161.41
2022-12-26T15:03:51.999Z,101160.31
2022-12-26T15:07:16.818Z,101158.63
2022-12-26T15:10:22.590Z,101158.75
2022-12-26T15:13:54.397Z,101157.44
2022-12-26T15:16:51.288Z,101152.53
2022-12-26T15:20:14.073Z,101146.38
2022-12-26T15:23:39.573Z,101157.16
2022-12-26T15:26:49.872Z,101161.41
2022-12-26T15:29:53.114Z,101118.63
2022-12-26T15:32:43.755Z,101142.34
2022-12-26T15:35:33.764Z,101166.19
2022-12-26T15:38:33.339Z,101160.09
2022-12-26T15:41:30.913Z,101033.63
2022-12-26T15:44:30.122Z,101147.56
2022-12-26T15:47:21.503Z,101151.69
2022-12-26T15:50:18.858Z,101149.00
2022-12-26T15:53:20.448Z,101119.03
2022-12-26T15:56:49.482Z,101113.94
2022-12-26T15:59:56.713Z,101113.84
2022-12-26T16:02:49.383Z,101158.06
2022-12-26T16:05:47.009Z,101155.34
2022-12-26T16:09:16.951Z,101156.25
2022-12-26T16:12:02.571Z,101131.19
2022-12-26T16:14:48.761Z,101122.34
2022-12-26T16:17:34.149Z,101122.59
2022-12-26T16:20:40.685Z,101161.34
2022-12-26T16:23:26.783Z,101152.66
2022-12-26T16:26:18.522Z,101153.56
2022-12-26T16:29:02.696Z,101128.56
2022-12-26T16:31:49.325Z,101159.06
2022-12-26T16:34:37.039Z,101120.69
2022-12-26T16:37:24.613Z,101144.94
2022-12-26T16:40:18.293Z,101151.63
2022-12-26T16:43:05.626Z,101137.97
2022-12-26T16:45:53.137Z,101140.50
2022-12-26T16:48:38.575Z,101151.69
2022-12-26T16:51:39.549Z,101131.88
2022-12-26T16:54:38.108Z,101119.09
2022-12-26T16:57:23.241Z,101151.53
2022-12-26T17:00:08.121Z,101106.69
2022-12-26T17:02:55.100Z,101147.03
2022-12-26T17:05:43.983Z,101116.84
2022-12-26T17:08:27.893Z,101144.84
2022-12-26T17:11:13.302Z,101119.69
2022-12-26T17:13:58.599Z,101141.34
2022-12-26T17:16:42.459Z,101145.78
2022-12-26T17:19:29.879Z,101129.59
2022-12-26T17:22:30.605Z,101131.34
2022-12-26T17:25:26.452Z,101124.44
2022-12-26T17:28:25.050Z,101111.56
2022-12-26T17:31:19.628Z,101104.81
2022-12-26T17:34:07.928Z,101128.19
2022-12-26T17:37:18.272Z,101128.19
2022-12-26T17:40:03.807Z,101139.78
2022-12-26T17:42:49.559Z,101132.81
2022-12-26T17:45:33.403Z,101122.28
2022-12-26T17:48:17.445Z,101125.09
2022-12-26T17:51:04.454Z,101104.25
2022-12-26T17:53:52.283Z,101112.59
2022-12-26T17:56:38.061Z,101085.00
2022-12-26T17:59:23.769Z,101096.59
2022-12-26T18:02:07.684Z,101114.06
2022-12-26T18:04:51.700Z,100987.06
2022-12-26T18:07:35.668Z,101107.81
2022-12-26T18:10:23.071Z,101111.50
2022-12-26T18:13:17.187Z,101107.97
2022-12-26T18:16:01.466Z,101101.91
2022-12-26T18:18:47.397Z,101108.72
2022-12-26T18:21:31.690Z,101100.84
2022-12-26T18:24:15.656Z,101057.69
2022-12-26T18:26:59.629Z,101103.56
2022-12-26T18:29:44.978Z,101116.63
2022-12-26T18:32:31.109Z,101076.94
2022-12-26T18:35:15.944Z,101102.03
2022-12-26T18:38:03.302Z,101107.13
2022-12-26T18:40:50.284Z,101108.88
2022-12-26T18:43:35.202Z,101097.50
2022-12-26T18:46:24.070Z,101101.78
2022-12-26T18:49:08.039Z,101064.59
2022-12-26T18:51:52.685Z,101110.56
2022-12-26T18:54:43.364Z,101111.63
2022-12-26T18:57:28.927Z,101102.97
2022-12-26T19:00:16.867Z,101101.97
2022-12-26T19:03:03.888Z,101104.94
2022-12-26T19:05:49.084Z,101092.84
2022-12-26T19:08:33.462Z,101099.47
2022-12-26T19:11:18.460Z,101085.56
2022-12-26T19:14:03.609Z,101074.25
2022-12-26T19:16:48.362Z,101068.91
2022-12-26T19:19:34.424Z,101084.03
2022-12-26T19:22:18.683Z,101040.53
2022-12-26T19:25:03.451Z,101069.97
2022-12-26T19:27:48.613Z,101062.22
2022-12-26T19:30:38.490Z,101063.13
2022-12-26T19:33:23.033Z,101051.78
2022-12-26T19:36:09.669Z,101052.31
2022-12-26T19:38:54.679Z,101049.72
2022-12-26T19:41:38.645Z,101028.69
2022-12-26T19:44:22.814Z,101045.09
2022-12-26T19:47:12.714Z,101037.50
2022-12-26T19:49:57.111Z,101043.47
2022-12-26T19:52:42.932Z,100998.59
2022-12-26T19:55:26.775Z,101049.78
2022-12-26T19:58:10.680Z,101046.44
2022-12-26T20:00:54.722Z,101048.19
2022-12-26T20:03:38.743Z,101049.31
2022-12-26T20:06:25.444Z,100955.72
2022-12-26T20:09:13.405Z,100989.28
2022-12-26T20:11:57.996Z,100987.50
2022-12-26T20:14:42.036Z,101011.63
2022-12-26T20:17:26.093Z,101035.81
2022-12-26T20:20:10.878Z,101038.06
2022-12-26T20:22:54.926Z,101038.06
2022-12-26T20:25:41.329Z,101035.13
2022-12-26T20:28:25.238Z,101026.34
2022-12-26T20:31:13.154Z,101000.34
2022-12-26T20:33:57.890Z,100981.34
2022-12-26T20:36:42.750Z,101024.72
2022-12-26T20:39:27.301Z,101021.13
2022-12-26T20:42:15.795Z,100998.81
2022-12-26T20:44:59.643Z,101020.19
2022-12-26T20:47:43.533Z,101009.06
2022-12-26T20:50:29.506Z,101013.50
2022-12-26T20:53:14.089Z,100993.56
2022-12-26T20:55:58.712Z,101010.91
2022-12-26T20:58:44.203Z,100994.41
2022-12-26T21:01:28.828Z,100968.81
2022-12-26T21:04:18.387Z,100973.53
2022-12-26T21:07:02.331Z,101003.63
2022-12-26T21:09:46.861Z,101000.94
2022-12-26T21:12:30.724Z,101004.19
2022-12-26T21:15:16.346Z,100994.53
2022-12-26T21:18:00.341Z,100996.06
2022-12-26T21:20:46.073Z,100995.50
2022-12-26T21:23:30.011Z,100982.75
2022-12-26T21:26:13.964Z,100978.28
2022-12-26T21:28:59.886Z,100977.94
2022-12-26T21:31:45.431Z,100984.38
2022-12-26T21:34:31.787Z,100973.19
2022-12-26T21:37:33.174Z,100945.56
2022-12-26T21:40:17.046Z,100968.47
2022-12-26T21:43:00.869Z,100968.41
2022-12-26T21:45:45.285Z,100916.22
2022-12-26T21:48:30.550Z,100962.72
2022-12-26T21:51:15.239Z,100929.69
2022-12-26T21:54:22.941Z,100954.84
2022-12-26T21:57:05.729Z,100954.66
2022-12-26T21:59:58.746Z,100951.56
2022-12-26T22:03:00.244Z,100948.53
2022-12-26T22:05:45.523Z,100952.38
2022-12-26T22:08:29.437Z,100952.19
2022-12-26T22:11:35.883Z,100936.72
2022-12-26T22:14:19.644Z,100942.41
2022-12-26T22:17:03.428Z,100937.81
2022-12-26T22:19:47.187Z,100941.34
2022-12-26T22:22:33.138Z,100916.97
2022-12-26T22:25:16.953Z,100916.09
2022-12-26T22:28:01.390Z,100878.09
2022-12-26T22:30:48.673Z,100891.94
2022-12-26T22:33:32.849Z,100919.19
2022-12-26T22:36:16.655Z,100919.97
2022-12-26T22:39:02.315Z,100914.38
2022-12-26T22:41:46.816Z,100904.59
2022-12-26T22:44:30.532Z,100905.44
2022-12-26T22:47:15.475Z,100903.34
2022-12-26T22:49:59.385Z,100894.72
2022-12-26T22:52:43.376Z,100897.44
2022-12-26T22:55:28.551Z,100903.88
2022-12-26T22:58:12.397Z,100897.28
2022-12-26T23:00:56.982Z,100891.47
2022-12-26T23:03:40.957Z,100891.56
2022-12-26T23:06:27.118Z,100828.66
2022-12-26T23:09:15.514Z,100882.03
2022-12-26T23:12:18.477Z,100893.59
2022-12-26T23:15:02.465Z,100890.06
2022-12-26T23:18:08.083Z,100895.31
2022-12-26T23:21:11.441Z,100892.78
2022-12-26T23:23:55.767Z,100886.00
2022-12-26T23:26:39.740Z,100888.31
2022-12-26T23:29:43.316Z,100887.13
2022-12-26T23:32:27.138Z,100873.41
2022-12-26T23:35:12.635Z,100876.38
2022-12-26T23:37:56.467Z,100868.69
2022-12-26T23:40:40.327Z,100873.66
2022-12-26T23:43:24.204Z,100872.56
2022-12-26T23:46:11.819Z,100852.38
2022-12-26T23:48:55.676Z,100857.84
2022-12-26T23:51:39.472Z,100848.97
2022-12-26T23:54:23.325Z,100870.63
2022-12-26T23:57:07.256Z,100856.81
2022-12-26T23:59:50.981Z,100851.00
